sensor_id;sensor_type;location;lat;lon;timestamp;P1;durP1;ratioP1;P2;durP2;ratioP2
43580;SDS011;29175;51.030;4.606;2023-07-20T00:02:11;13.82;;;3.55;;
43580;SDS011;29175;51.030;4.606;2023-07-20T00:04:36;9.50;;;3.83;;
43580;SDS011;29175;51.030;4.606;2023-07-20T00:07:03;12.63;;;4.00;;
43580;SDS011;29175;51.030;4.606;2023-07-20T00:09:29;13.70;;;3.65;;
43580;SDS011;29175;51.030;4.606;2023-07-20T00:11:56;10.05;;;3.50;;
43580;SDS011;29175;51.030;4.606;2023-07-20T00:14:22;11.77;;;4.13;;
43580;SDS011;29175;51.030;4.606;2023-07-20T00:16:49;10.55;;;3.42;;
43580;SDS011;29175;51.030;4.606;2023-07-20T00:19:21;14.27;;;3.88;;
43580;SDS011;29175;51.030;4.606;2023-07-20T00:21:48;12.52;;;4.10;;
43580;SDS011;29175;51.030;4.606;2023-07-20T00:24:15;13.27;;;3.35;;
43580;SDS011;29175;51.030;4.606;2023-07-20T00:26:41;9.35;;;4.10;;
43580;SDS011;29175;51.030;4.606;2023-07-20T00:29:09;10.50;;;4.05;;
43580;SDS011;29175;51.030;4.606;2023-07-20T00:31:35;8.85;;;3.63;;
43580;SDS011;29175;51.030;4.606;2023-07-20T00:34:02;12.57;;;3.97;;
43580;SDS011;29175;51.030;4.606;2023-07-20T00:36:28;8.23;;;3.53;;
43580;SDS011;29175;51.030;4.606;2023-07-20T00:38:54;9.98;;;4.05;;
43580;SDS011;29175;51.030;4.606;2023-07-20T00:41:20;13.00;;;4.13;;
43580;SDS011;29175;51.030;4.606;2023-07-20T00:43:46;9.43;;;3.67;;
43580;SDS011;29175;51.030;4.606;2023-07-20T00:46:13;10.82;;;3.65;;
43580;SDS011;29175;51.030;4.606;2023-07-20T00:48:40;10.65;;;3.72;;
43580;SDS011;29175;51.030;4.606;2023-07-20T00:51:07;12.00;;;4.07;;
43580;SDS011;29175;51.030;4.606;2023-07-20T00:53:33;10.57;;;3.70;;
43580;SDS011;29175;51.030;4.606;2023-07-20T00:55:59;12.63;;;3.25;;
43580;SDS011;29175;51.030;4.606;2023-07-20T00:58:25;12.63;;;3.60;;
43580;SDS011;29175;51.030;4.606;2023-07-20T01:00:52;15.25;;;3.90;;
43580;SDS011;29175;51.030;4.606;2023-07-20T01:03:17;10.68;;;3.90;;
43580;SDS011;29175;51.030;4.606;2023-07-20T01:08:47;12.02;;;4.22;;
43580;SDS011;29175;51.030;4.606;2023-07-20T01:11:36;8.65;;;3.60;;
43580;SDS011;29175;51.030;4.606;2023-07-20T01:14:13;12.35;;;4.45;;
43580;SDS011;29175;51.030;4.606;2023-07-20T01:16:41;15.00;;;4.28;;
43580;SDS011;29175;51.030;4.606;2023-07-20T01:19:07;13.63;;;4.60;;
43580;SDS011;29175;51.030;4.606;2023-07-20T01:21:45;11.38;;;4.40;;
43580;SDS011;29175;51.030;4.606;2023-07-20T01:27:02;11.77;;;3.85;;
43580;SDS011;29175;51.030;4.606;2023-07-20T01:32:58;17.52;;;4.38;;
43580;SDS011;29175;51.030;4.606;2023-07-20T01:35:27;10.50;;;4.18;;
43580;SDS011;29175;51.030;4.606;2023-07-20T01:37:55;10.85;;;4.10;;
43580;SDS011;29175;51.030;4.606;2023-07-20T01:40:23;10.82;;;4.97;;
43580;SDS011;29175;51.030;4.606;2023-07-20T01:42:50;11.98;;;4.50;;
43580;SDS011;29175;51.030;4.606;2023-07-20T01:45:17;10.68;;;4.18;;
43580;SDS011;29175;51.030;4.606;2023-07-20T01:47:43;16.73;;;4.60;;
43580;SDS011;29175;51.030;4.606;2023-07-20T01:50:09;14.15;;;4.68;;
43580;SDS011;29175;51.030;4.606;2023-07-20T01:52:34;11.55;;;4.35;;
43580;SDS011;29175;51.030;4.606;2023-07-20T01:55:00;22.02;;;4.88;;
43580;SDS011;29175;51.030;4.606;2023-07-20T01:57:26;13.65;;;4.63;;
43580;SDS011;29175;51.030;4.606;2023-07-20T01:59:52;12.32;;;4.78;;
43580;SDS011;29175;51.030;4.606;2023-07-20T02:02:17;21.58;;;5.38;;
43580;SDS011;29175;51.030;4.606;2023-07-20T02:04:43;18.92;;;4.90;;
43580;SDS011;29175;51.030;4.606;2023-07-20T02:07:09;16.48;;;4.50;;
43580;SDS011;29175;51.030;4.606;2023-07-20T02:09:35;10.73;;;4.60;;
43580;SDS011;29175;51.030;4.606;2023-07-20T02:12:00;15.57;;;5.05;;
43580;SDS011;29175;51.030;4.606;2023-07-20T02:14:26;17.08;;;4.68;;
43580;SDS011;29175;51.030;4.606;2023-07-20T02:16:52;10.88;;;3.97;;
43580;SDS011;29175;51.030;4.606;2023-07-20T02:19:19;12.63;;;4.78;;
43580;SDS011;29175;51.030;4.606;2023-07-20T02:21:45;17.55;;;5.30;;
43580;SDS011;29175;51.030;4.606;2023-07-20T02:24:11;12.85;;;4.80;;
43580;SDS011;29175;51.030;4.606;2023-07-20T02:26:38;15.30;;;5.50;;
43580;SDS011;29175;51.030;4.606;2023-07-20T02:29:03;17.52;;;5.80;;
43580;SDS011;29175;51.030;4.606;2023-07-20T02:31:34;17.77;;;5.45;;
43580;SDS011;29175;51.030;4.606;2023-07-20T02:34:02;13.93;;;5.55;;
43580;SDS011;29175;51.030;4.606;2023-07-20T02:36:28;16.20;;;5.40;;
43580;SDS011;29175;51.030;4.606;2023-07-20T02:38:55;17.75;;;5.55;;
43580;SDS011;29175;51.030;4.606;2023-07-20T02:41:20;14.77;;;5.32;;
43580;SDS011;29175;51.030;4.606;2023-07-20T02:43:47;12.88;;;5.10;;
43580;SDS011;29175;51.030;4.606;2023-07-20T02:46:13;17.85;;;5.75;;
43580;SDS011;29175;51.030;4.606;2023-07-20T02:48:39;13.32;;;5.28;;
43580;SDS011;29175;51.030;4.606;2023-07-20T02:51:04;15.27;;;5.30;;
43580;SDS011;29175;51.030;4.606;2023-07-20T02:53:30;20.27;;;5.32;;
43580;SDS011;29175;51.030;4.606;2023-07-20T02:55:56;16.65;;;5.15;;
43580;SDS011;29175;51.030;4.606;2023-07-20T02:58:21;17.10;;;5.30;;
43580;SDS011;29175;51.030;4.606;2023-07-20T03:00:47;15.98;;;6.53;;
43580;SDS011;29175;51.030;4.606;2023-07-20T03:03:13;15.50;;;4.75;;
43580;SDS011;29175;51.030;4.606;2023-07-20T03:05:40;16.02;;;6.07;;
43580;SDS011;29175;51.030;4.606;2023-07-20T03:08:07;17.27;;;5.97;;
43580;SDS011;29175;51.030;4.606;2023-07-20T03:10:32;13.60;;;5.60;;
43580;SDS011;29175;51.030;4.606;2023-07-20T03:13:03;14.98;;;6.25;;
43580;SDS011;29175;51.030;4.606;2023-07-20T03:15:28;20.25;;;5.53;;
43580;SDS011;29175;51.030;4.606;2023-07-20T03:17:55;16.17;;;6.07;;
43580;SDS011;29175;51.030;4.606;2023-07-20T03:20:21;17.38;;;6.25;;
43580;SDS011;29175;51.030;4.606;2023-07-20T03:22:46;18.58;;;6.38;;
43580;SDS011;29175;51.030;4.606;2023-07-20T03:25:12;18.20;;;5.72;;
43580;SDS011;29175;51.030;4.606;2023-07-20T03:27:38;15.35;;;5.43;;
43580;SDS011;29175;51.030;4.606;2023-07-20T03:30:04;13.77;;;6.00;;
43580;SDS011;29175;51.030;4.606;2023-07-20T03:32:32;20.50;;;5.78;;
43580;SDS011;29175;51.030;4.606;2023-07-20T03:34:59;11.35;;;4.70;;
43580;SDS011;29175;51.030;4.606;2023-07-20T03:37:24;17.55;;;5.72;;
43580;SDS011;29175;51.030;4.606;2023-07-20T03:39:51;13.88;;;5.82;;
43580;SDS011;29175;51.030;4.606;2023-07-20T03:42:17;12.73;;;5.80;;
43580;SDS011;29175;51.030;4.606;2023-07-20T03:44:43;22.02;;;6.30;;
43580;SDS011;29175;51.030;4.606;2023-07-20T03:47:10;14.02;;;5.05;;
43580;SDS011;29175;51.030;4.606;2023-07-20T03:49:36;13.38;;;6.05;;
43580;SDS011;29175;51.030;4.606;2023-07-20T03:52:02;18.83;;;6.07;;
43580;SDS011;29175;51.030;4.606;2023-07-20T03:54:31;16.33;;;6.57;;
43580;SDS011;29175;51.030;4.606;2023-07-20T03:56:58;24.52;;;7.60;;
43580;SDS011;29175;51.030;4.606;2023-07-20T03:59:24;28.15;;;7.65;;
43580;SDS011;29175;51.030;4.606;2023-07-20T04:01:50;22.70;;;6.68;;
43580;SDS011;29175;51.030;4.606;2023-07-20T04:04:16;14.88;;;6.43;;
43580;SDS011;29175;51.030;4.606;2023-07-20T04:06:42;17.50;;;6.70;;
43580;SDS011;29175;51.030;4.606;2023-07-20T04:09:11;21.02;;;6.88;;
43580;SDS011;29175;51.030;4.606;2023-07-20T04:11:37;14.88;;;6.70;;
43580;SDS011;29175;51.030;4.606;2023-07-20T04:14:03;18.63;;;6.38;;
43580;SDS011;29175;51.030;4.606;2023-07-20T04:16:29;17.17;;;6.88;;
43580;SDS011;29175;51.030;4.606;2023-07-20T04:18:57;15.95;;;6.25;;
43580;SDS011;29175;51.030;4.606;2023-07-20T04:21:23;19.17;;;6.50;;
43580;SDS011;29175;51.030;4.606;2023-07-20T04:23:50;17.33;;;6.60;;
43580;SDS011;29175;51.030;4.606;2023-07-20T04:26:16;24.23;;;8.13;;
43580;SDS011;29175;51.030;4.606;2023-07-20T04:28:42;15.35;;;6.70;;
43580;SDS011;29175;51.030;4.606;2023-07-20T04:31:11;21.75;;;7.68;;
43580;SDS011;29175;51.030;4.606;2023-07-20T04:33:38;19.77;;;7.95;;
43580;SDS011;29175;51.030;4.606;2023-07-20T04:36:03;21.38;;;7.20;;
43580;SDS011;29175;51.030;4.606;2023-07-20T04:38:29;13.60;;;7.03;;
43580;SDS011;29175;51.030;4.606;2023-07-20T04:40:55;16.02;;;6.90;;
43580;SDS011;29175;51.030;4.606;2023-07-20T04:43:20;16.20;;;7.03;;
43580;SDS011;29175;51.030;4.606;2023-07-20T04:45:46;28.80;;;8.40;;
43580;SDS011;29175;51.030;4.606;2023-07-20T04:48:13;17.67;;;7.55;;
43580;SDS011;29175;51.030;4.606;2023-07-20T04:50:40;22.80;;;8.70;;
43580;SDS011;29175;51.030;4.606;2023-07-20T04:53:07;21.88;;;7.78;;
43580;SDS011;29175;51.030;4.606;2023-07-20T04:55:35;27.58;;;8.90;;
43580;SDS011;29175;51.030;4.606;2023-07-20T04:58:01;22.80;;;7.68;;
43580;SDS011;29175;51.030;4.606;2023-07-20T05:00:28;20.73;;;8.35;;
43580;SDS011;29175;51.030;4.606;2023-07-20T05:02:55;21.48;;;8.35;;
43580;SDS011;29175;51.030;4.606;2023-07-20T05:05:21;18.25;;;7.40;;
43580;SDS011;29175;51.030;4.606;2023-07-20T05:07:47;24.92;;;8.30;;
43580;SDS011;29175;51.030;4.606;2023-07-20T05:10:12;23.80;;;8.55;;
43580;SDS011;29175;51.030;4.606;2023-07-20T05:12:38;19.48;;;8.90;;
43580;SDS011;29175;51.030;4.606;2023-07-20T05:15:04;21.00;;;8.60;;
43580;SDS011;29175;51.030;4.606;2023-07-20T05:17:30;25.10;;;8.50;;
43580;SDS011;29175;51.030;4.606;2023-07-20T05:19:56;23.15;;;9.07;;
43580;SDS011;29175;51.030;4.606;2023-07-20T05:22:21;27.77;;;8.65;;
43580;SDS011;29175;51.030;4.606;2023-07-20T05:24:48;20.73;;;8.13;;
43580;SDS011;29175;51.030;4.606;2023-07-20T05:27:13;21.23;;;8.95;;
43580;SDS011;29175;51.030;4.606;2023-07-20T05:29:48;24.75;;;9.38;;
43580;SDS011;29175;51.030;4.606;2023-07-20T05:32:14;18.83;;;7.72;;
43580;SDS011;29175;51.030;4.606;2023-07-20T05:34:39;21.40;;;9.40;;
43580;SDS011;29175;51.030;4.606;2023-07-20T05:37:05;22.58;;;9.43;;
43580;SDS011;29175;51.030;4.606;2023-07-20T05:39:34;19.63;;;9.05;;
43580;SDS011;29175;51.030;4.606;2023-07-20T05:41:59;22.35;;;8.82;;
43580;SDS011;29175;51.030;4.606;2023-07-20T05:44:25;21.25;;;8.40;;
43580;SDS011;29175;51.030;4.606;2023-07-20T05:46:51;19.33;;;9.13;;
43580;SDS011;29175;51.030;4.606;2023-07-20T05:49:18;19.63;;;8.38;;
43580;SDS011;29175;51.030;4.606;2023-07-20T05:51:43;19.77;;;8.43;;
43580;SDS011;29175;51.030;4.606;2023-07-20T05:54:09;23.98;;;8.93;;
43580;SDS011;29175;51.030;4.606;2023-07-20T05:56:35;18.48;;;8.25;;
43580;SDS011;29175;51.030;4.606;2023-07-20T05:59:01;21.70;;;9.20;;
43580;SDS011;29175;51.030;4.606;2023-07-20T06:01:27;22.48;;;9.20;;
43580;SDS011;29175;51.030;4.606;2023-07-20T06:03:53;26.30;;;9.85;;
43580;SDS011;29175;51.030;4.606;2023-07-20T06:06:19;23.63;;;8.93;;
43580;SDS011;29175;51.030;4.606;2023-07-20T06:08:44;15.82;;;8.18;;
43580;SDS011;29175;51.030;4.606;2023-07-20T06:11:10;17.70;;;8.45;;
43580;SDS011;29175;51.030;4.606;2023-07-20T06:13:36;20.95;;;9.43;;
43580;SDS011;29175;51.030;4.606;2023-07-20T06:16:02;21.58;;;9.95;;
43580;SDS011;29175;51.030;4.606;2023-07-20T06:18:28;21.77;;;9.68;;
43580;SDS011;29175;51.030;4.606;2023-07-20T06:20:55;22.38;;;9.70;;
43580;SDS011;29175;51.030;4.606;2023-07-20T06:23:21;21.63;;;9.40;;
43580;SDS011;29175;51.030;4.606;2023-07-20T06:25:47;21.60;;;9.88;;
43580;SDS011;29175;51.030;4.606;2023-07-20T06:28:13;18.95;;;9.30;;
43580;SDS011;29175;51.030;4.606;2023-07-20T06:30:38;18.92;;;8.63;;
43580;SDS011;29175;51.030;4.606;2023-07-20T06:33:04;22.23;;;8.73;;
43580;SDS011;29175;51.030;4.606;2023-07-20T06:35:31;19.08;;;8.60;;
43580;SDS011;29175;51.030;4.606;2023-07-20T06:37:57;20.98;;;10.23;;
43580;SDS011;29175;51.030;4.606;2023-07-20T06:40:24;19.42;;;9.90;;
43580;SDS011;29175;51.030;4.606;2023-07-20T06:42:49;26.23;;;10.48;;
43580;SDS011;29175;51.030;4.606;2023-07-20T06:45:15;23.83;;;10.23;;
43580;SDS011;29175;51.030;4.606;2023-07-20T06:47:41;24.83;;;11.27;;
43580;SDS011;29175;51.030;4.606;2023-07-20T06:50:07;27.05;;;11.30;;
43580;SDS011;29175;51.030;4.606;2023-07-20T06:52:34;26.25;;;11.77;;
43580;SDS011;29175;51.030;4.606;2023-07-20T06:55:00;23.73;;;11.20;;
43580;SDS011;29175;51.030;4.606;2023-07-20T06:57:26;27.30;;;11.75;;
43580;SDS011;29175;51.030;4.606;2023-07-20T06:59:51;26.70;;;11.13;;
43580;SDS011;29175;51.030;4.606;2023-07-20T07:02:18;26.85;;;10.98;;
43580;SDS011;29175;51.030;4.606;2023-07-20T07:04:44;27.88;;;11.20;;
43580;SDS011;29175;51.030;4.606;2023-07-20T07:07:11;20.27;;;10.50;;
43580;SDS011;29175;51.030;4.606;2023-07-20T07:09:40;22.55;;;10.95;;
43580;SDS011;29175;51.030;4.606;2023-07-20T07:12:07;20.15;;;10.45;;
43580;SDS011;29175;51.030;4.606;2023-07-20T07:14:33;19.50;;;9.90;;
43580;SDS011;29175;51.030;4.606;2023-07-20T07:16:59;22.48;;;10.18;;
43580;SDS011;29175;51.030;4.606;2023-07-20T07:19:25;19.85;;;9.30;;
43580;SDS011;29175;51.030;4.606;2023-07-20T07:21:51;17.63;;;9.27;;
43580;SDS011;29175;51.030;4.606;2023-07-20T07:24:16;17.17;;;10.13;;
43580;SDS011;29175;51.030;4.606;2023-07-20T07:26:42;16.42;;;8.70;;
43580;SDS011;29175;51.030;4.606;2023-07-20T07:29:08;19.38;;;8.75;;
43580;SDS011;29175;51.030;4.606;2023-07-20T07:31:34;20.83;;;9.95;;
43580;SDS011;29175;51.030;4.606;2023-07-20T07:34:01;19.95;;;9.50;;
43580;SDS011;29175;51.030;4.606;2023-07-20T07:36:27;18.98;;;9.65;;
43580;SDS011;29175;51.030;4.606;2023-07-20T07:38:53;19.35;;;9.18;;
43580;SDS011;29175;51.030;4.606;2023-07-20T07:41:19;21.70;;;9.75;;
43580;SDS011;29175;51.030;4.606;2023-07-20T07:43:45;17.58;;;8.73;;
43580;SDS011;29175;51.030;4.606;2023-07-20T07:46:11;19.80;;;8.50;;
43580;SDS011;29175;51.030;4.606;2023-07-20T07:48:37;18.40;;;7.35;;
43580;SDS011;29175;51.030;4.606;2023-07-20T07:51:03;13.90;;;7.47;;
43580;SDS011;29175;51.030;4.606;2023-07-20T07:53:28;18.65;;;8.50;;
43580;SDS011;29175;51.030;4.606;2023-07-20T07:55:54;15.40;;;8.73;;
43580;SDS011;29175;51.030;4.606;2023-07-20T07:58:20;15.43;;;7.78;;
43580;SDS011;29175;51.030;4.606;2023-07-20T08:00:46;16.00;;;7.78;;
43580;SDS011;29175;51.030;4.606;2023-07-20T08:03:12;12.57;;;7.85;;
43580;SDS011;29175;51.030;4.606;2023-07-20T08:05:38;12.50;;;7.57;;
43580;SDS011;29175;51.030;4.606;2023-07-20T08:08:04;16.50;;;7.90;;
43580;SDS011;29175;51.030;4.606;2023-07-20T08:10:30;19.33;;;8.52;;
43580;SDS011;29175;51.030;4.606;2023-07-20T08:12:56;13.98;;;6.45;;
43580;SDS011;29175;51.030;4.606;2023-07-20T08:15:21;17.92;;;7.25;;
43580;SDS011;29175;51.030;4.606;2023-07-20T08:17:47;9.68;;;6.10;;
43580;SDS011;29175;51.030;4.606;2023-07-20T08:20:14;11.27;;;5.40;;
43580;SDS011;29175;51.030;4.606;2023-07-20T08:22:41;11.02;;;5.70;;
43580;SDS011;29175;51.030;4.606;2023-07-20T08:25:07;10.63;;;6.13;;
43580;SDS011;29175;51.030;4.606;2023-07-20T08:27:34;8.88;;;5.50;;
43580;SDS011;29175;51.030;4.606;2023-07-20T08:30:01;13.57;;;5.65;;
43580;SDS011;29175;51.030;4.606;2023-07-20T08:32:27;15.07;;;5.25;;
43580;SDS011;29175;51.030;4.606;2023-07-20T08:34:53;8.43;;;4.68;;
43580;SDS011;29175;51.030;4.606;2023-07-20T08:37:18;7.97;;;4.43;;
43580;SDS011;29175;51.030;4.606;2023-07-20T08:39:44;8.18;;;4.97;;
43580;SDS011;29175;51.030;4.606;2023-07-20T08:42:10;7.72;;;4.45;;
43580;SDS011;29175;51.030;4.606;2023-07-20T08:44:36;5.70;;;4.00;;
43580;SDS011;29175;51.030;4.606;2023-07-20T08:47:04;5.00;;;2.70;;
43580;SDS011;29175;51.030;4.606;2023-07-20T08:49:32;4.75;;;2.17;;
43580;SDS011;29175;51.030;4.606;2023-07-20T08:51:59;4.47;;;2.50;;
43580;SDS011;29175;51.030;4.606;2023-07-20T08:54:27;5.85;;;3.13;;
43580;SDS011;29175;51.030;4.606;2023-07-20T08:56:57;5.63;;;3.05;;
43580;SDS011;29175;51.030;4.606;2023-07-20T08:59:26;6.22;;;3.67;;
43580;SDS011;29175;51.030;4.606;2023-07-20T09:01:53;5.57;;;3.60;;
43580;SDS011;29175;51.030;4.606;2023-07-20T09:04:22;6.38;;;3.78;;
43580;SDS011;29175;51.030;4.606;2023-07-20T09:06:49;4.85;;;2.70;;
43580;SDS011;29175;51.030;4.606;2023-07-20T09:09:15;5.10;;;2.63;;
43580;SDS011;29175;51.030;4.606;2023-07-20T09:11:41;4.10;;;2.75;;
43580;SDS011;29175;51.030;4.606;2023-07-20T09:14:07;4.70;;;2.58;;
43580;SDS011;29175;51.030;4.606;2023-07-20T09:16:50;5.75;;;2.58;;
43580;SDS011;29175;51.030;4.606;2023-07-20T09:19:17;4.50;;;2.53;;
43580;SDS011;29175;51.030;4.606;2023-07-20T09:21:49;3.97;;;2.22;;
43580;SDS011;29175;51.030;4.606;2023-07-20T09:24:17;5.38;;;2.22;;
43580;SDS011;29175;51.030;4.606;2023-07-20T09:26:44;4.28;;;1.90;;
43580;SDS011;29175;51.030;4.606;2023-07-20T09:29:13;4.68;;;2.38;;
43580;SDS011;29175;51.030;4.606;2023-07-20T09:31:39;2.67;;;1.45;;
43580;SDS011;29175;51.030;4.606;2023-07-20T09:34:05;5.22;;;1.48;;
43580;SDS011;29175;51.030;4.606;2023-07-20T09:36:35;3.58;;;1.58;;
43580;SDS011;29175;51.030;4.606;2023-07-20T09:39:02;2.25;;;1.30;;
43580;SDS011;29175;51.030;4.606;2023-07-20T09:41:29;2.30;;;1.52;;
43580;SDS011;29175;51.030;4.606;2023-07-20T09:43:54;2.35;;;1.48;;
43580;SDS011;29175;51.030;4.606;2023-07-20T09:46:20;1.42;;;1.25;;
43580;SDS011;29175;51.030;4.606;2023-07-20T09:48:53;2.53;;;1.52;;
43580;SDS011;29175;51.030;4.606;2023-07-20T09:51:22;2.00;;;1.20;;
43580;SDS011;29175;51.030;4.606;2023-07-20T09:53:49;2.55;;;1.48;;
43580;SDS011;29175;51.030;4.606;2023-07-20T09:58:46;1.80;;;1.30;;
43580;SDS011;29175;51.030;4.606;2023-07-20T10:01:12;2.65;;;1.65;;
43580;SDS011;29175;51.030;4.606;2023-07-20T10:03:41;2.65;;;1.60;;
43580;SDS011;29175;51.030;4.606;2023-07-20T10:06:10;2.58;;;1.67;;
43580;SDS011;29175;51.030;4.606;2023-07-20T10:08:40;4.43;;;1.75;;
43580;SDS011;29175;51.030;4.606;2023-07-20T10:11:06;2.35;;;1.30;;
43580;SDS011;29175;51.030;4.606;2023-07-20T10:13:36;3.60;;;1.40;;
43580;SDS011;29175;51.030;4.606;2023-07-20T10:16:07;3.13;;;1.98;;
43580;SDS011;29175;51.030;4.606;2023-07-20T10:18:55;1.88;;;1.13;;
43580;SDS011;29175;51.030;4.606;2023-07-20T10:21:24;2.28;;;1.50;;
43580;SDS011;29175;51.030;4.606;2023-07-20T10:23:51;2.78;;;1.65;;
43580;SDS011;29175;51.030;4.606;2023-07-20T10:26:17;3.85;;;1.50;;
43580;SDS011;29175;51.030;4.606;2023-07-20T10:28:43;4.30;;;1.75;;
43580;SDS011;29175;51.030;4.606;2023-07-20T10:31:09;3.92;;;1.67;;
43580;SDS011;29175;51.030;4.606;2023-07-20T10:33:38;3.57;;;2.00;;
43580;SDS011;29175;51.030;4.606;2023-07-20T10:36:05;2.78;;;2.00;;
43580;SDS011;29175;51.030;4.606;2023-07-20T10:41:18;1.80;;;1.20;;
43580;SDS011;29175;51.030;4.606;2023-07-20T10:43:50;2.30;;;1.63;;
43580;SDS011;29175;51.030;4.606;2023-07-20T10:46:41;2.28;;;1.30;;
43580;SDS011;29175;51.030;4.606;2023-07-20T10:49:10;1.88;;;1.23;;
43580;SDS011;29175;51.030;4.606;2023-07-20T10:56:42;2.10;;;1.60;;
43580;SDS011;29175;51.030;4.606;2023-07-20T10:59:17;3.70;;;1.13;;
43580;SDS011;29175;51.030;4.606;2023-07-20T11:01:49;2.00;;;1.30;;
43580;SDS011;29175;51.030;4.606;2023-07-20T11:04:39;2.90;;;1.17;;
43580;SDS011;29175;51.030;4.606;2023-07-20T11:07:09;2.15;;;1.10;;
43580;SDS011;29175;51.030;4.606;2023-07-20T11:09:38;1.40;;;1.02;;
43580;SDS011;29175;51.030;4.606;2023-07-20T11:12:11;4.85;;;1.55;;
43580;SDS011;29175;51.030;4.606;2023-07-20T11:14:44;2.05;;;1.23;;
43580;SDS011;29175;51.030;4.606;2023-07-20T11:17:19;2.10;;;1.10;;
43580;SDS011;29175;51.030;4.606;2023-07-20T11:19:51;2.30;;;0.98;;
43580;SDS011;29175;51.030;4.606;2023-07-20T11:22:21;2.28;;;1.05;;
43580;SDS011;29175;51.030;4.606;2023-07-20T11:24:47;1.40;;;0.90;;
43580;SDS011;29175;51.030;4.606;2023-07-20T11:27:16;4.97;;;1.05;;
43580;SDS011;29175;51.030;4.606;2023-07-20T11:29:45;1.65;;;0.80;;
43580;SDS011;29175;51.030;4.606;2023-07-20T11:32:10;3.97;;;0.80;;
43580;SDS011;29175;51.030;4.606;2023-07-20T11:34:36;2.42;;;1.00;;
43580;SDS011;29175;51.030;4.606;2023-07-20T11:37:02;3.85;;;1.08;;
43580;SDS011;29175;51.030;4.606;2023-07-20T11:39:28;3.50;;;1.27;;
43580;SDS011;29175;51.030;4.606;2023-07-20T11:41:55;1.63;;;0.90;;
43580;SDS011;29175;51.030;4.606;2023-07-20T11:44:22;2.03;;;0.85;;
43580;SDS011;29175;51.030;4.606;2023-07-20T11:46:58;3.25;;;1.00;;
43580;SDS011;29175;51.030;4.606;2023-07-20T11:49:36;1.15;;;0.80;;
43580;SDS011;29175;51.030;4.606;2023-07-20T11:52:06;1.45;;;0.90;;
43580;SDS011;29175;51.030;4.606;2023-07-20T11:54:34;3.58;;;1.08;;
43580;SDS011;29175;51.030;4.606;2023-07-20T11:57:00;2.38;;;0.90;;
43580;SDS011;29175;51.030;4.606;2023-07-20T11:59:27;2.88;;;1.00;;
43580;SDS011;29175;51.030;4.606;2023-07-20T12:01:52;4.70;;;1.00;;
43580;SDS011;29175;51.030;4.606;2023-07-20T12:04:18;1.85;;;0.75;;
43580;SDS011;29175;51.030;4.606;2023-07-20T12:06:45;2.20;;;0.98;;
43580;SDS011;29175;51.030;4.606;2023-07-20T12:09:14;4.93;;;1.02;;
43580;SDS011;29175;51.030;4.606;2023-07-20T12:11:43;4.10;;;1.35;;
43580;SDS011;29175;51.030;4.606;2023-07-20T12:14:10;3.08;;;1.05;;
43580;SDS011;29175;51.030;4.606;2023-07-20T12:16:36;3.28;;;1.00;;
43580;SDS011;29175;51.030;4.606;2023-07-20T12:19:04;2.33;;;1.23;;
43580;SDS011;29175;51.030;4.606;2023-07-20T12:21:36;1.30;;;0.85;;
43580;SDS011;29175;51.030;4.606;2023-07-20T12:24:04;2.35;;;0.88;;
43580;SDS011;29175;51.030;4.606;2023-07-20T12:26:31;1.48;;;0.70;;
43580;SDS011;29175;51.030;4.606;2023-07-20T12:28:58;1.42;;;0.90;;
43580;SDS011;29175;51.030;4.606;2023-07-20T12:31:24;2.15;;;0.98;;
43580;SDS011;29175;51.030;4.606;2023-07-20T12:33:51;2.60;;;1.00;;
43580;SDS011;29175;51.030;4.606;2023-07-20T12:36:18;3.80;;;0.90;;
43580;SDS011;29175;51.030;4.606;2023-07-20T12:38:44;3.25;;;0.88;;
43580;SDS011;29175;51.030;4.606;2023-07-20T12:41:10;2.83;;;1.00;;
43580;SDS011;29175;51.030;4.606;2023-07-20T12:43:40;3.60;;;0.93;;
43580;SDS011;29175;51.030;4.606;2023-07-20T12:46:07;2.20;;;1.00;;
43580;SDS011;29175;51.030;4.606;2023-07-20T12:48:33;0.93;;;0.70;;
43580;SDS011;29175;51.030;4.606;2023-07-20T12:51:05;2.70;;;1.17;;
43580;SDS011;29175;51.030;4.606;2023-07-20T12:53:31;2.15;;;0.95;;
43580;SDS011;29175;51.030;4.606;2023-07-20T12:55:57;2.33;;;1.00;;
43580;SDS011;29175;51.030;4.606;2023-07-20T12:58:27;1.30;;;0.90;;
43580;SDS011;29175;51.030;4.606;2023-07-20T13:00:52;3.17;;;1.10;;
43580;SDS011;29175;51.030;4.606;2023-07-20T13:03:19;4.20;;;1.40;;
43580;SDS011;29175;51.030;4.606;2023-07-20T13:05:45;3.03;;;1.38;;
43580;SDS011;29175;51.030;4.606;2023-07-20T13:08:11;1.98;;;1.10;;
43580;SDS011;29175;51.030;4.606;2023-07-20T13:10:37;2.50;;;1.33;;
43580;SDS011;29175;51.030;4.606;2023-07-20T13:13:03;1.85;;;1.30;;
43580;SDS011;29175;51.030;4.606;2023-07-20T13:15:30;1.58;;;0.90;;
43580;SDS011;29175;51.030;4.606;2023-07-20T13:17:57;1.60;;;1.00;;
43580;SDS011;29175;51.030;4.606;2023-07-20T13:20:23;1.92;;;1.08;;
43580;SDS011;29175;51.030;4.606;2023-07-20T13:22:50;2.60;;;1.33;;
43580;SDS011;29175;51.030;4.606;2023-07-20T13:25:16;1.10;;;1.00;;
43580;SDS011;29175;51.030;4.606;2023-07-20T13:27:41;3.13;;;1.00;;
43580;SDS011;29175;51.030;4.606;2023-07-20T13:30:07;1.55;;;1.10;;
43580;SDS011;29175;51.030;4.606;2023-07-20T13:32:38;5.45;;;1.05;;
43580;SDS011;29175;51.030;4.606;2023-07-20T13:35:04;1.75;;;1.20;;
43580;SDS011;29175;51.030;4.606;2023-07-20T13:37:30;2.22;;;1.50;;
43580;SDS011;29175;51.030;4.606;2023-07-20T13:39:56;2.13;;;1.58;;
43580;SDS011;29175;51.030;4.606;2023-07-20T13:42:21;3.60;;;1.15;;
43580;SDS011;29175;51.030;4.606;2023-07-20T13:44:51;1.65;;;1.20;;
43580;SDS011;29175;51.030;4.606;2023-07-20T13:47:17;2.85;;;1.40;;
43580;SDS011;29175;51.030;4.606;2023-07-20T13:49:43;2.65;;;1.40;;
43580;SDS011;29175;51.030;4.606;2023-07-20T13:52:09;2.13;;;1.15;;
43580;SDS011;29175;51.030;4.606;2023-07-20T13:54:34;2.58;;;1.40;;
43580;SDS011;29175;51.030;4.606;2023-07-20T13:57:00;2.70;;;1.45;;
43580;SDS011;29175;51.030;4.606;2023-07-20T13:59:26;3.72;;;1.50;;
43580;SDS011;29175;51.030;4.606;2023-07-20T14:01:51;4.32;;;1.52;;
43580;SDS011;29175;51.030;4.606;2023-07-20T14:04:17;2.65;;;1.70;;
43580;SDS011;29175;51.030;4.606;2023-07-20T14:06:43;3.22;;;1.50;;
43580;SDS011;29175;51.030;4.606;2023-07-20T14:09:09;4.15;;;1.80;;
43580;SDS011;29175;51.030;4.606;2023-07-20T14:11:34;3.08;;;1.90;;
43580;SDS011;29175;51.030;4.606;2023-07-20T14:14:00;2.78;;;1.60;;
43580;SDS011;29175;51.030;4.606;2023-07-20T14:16:26;4.68;;;1.80;;
43580;SDS011;29175;51.030;4.606;2023-07-20T14:18:51;3.72;;;2.15;;
43580;SDS011;29175;51.030;4.606;2023-07-20T14:21:18;2.47;;;1.80;;
43580;SDS011;29175;51.030;4.606;2023-07-20T14:23:45;2.78;;;1.80;;
43580;SDS011;29175;51.030;4.606;2023-07-20T14:26:12;4.25;;;1.92;;
43580;SDS011;29175;51.030;4.606;2023-07-20T14:28:38;2.78;;;1.80;;
43580;SDS011;29175;51.030;4.606;2023-07-20T14:31:03;3.28;;;1.90;;
43580;SDS011;29175;51.030;4.606;2023-07-20T14:33:30;3.25;;;1.90;;
43580;SDS011;29175;51.030;4.606;2023-07-20T14:35:56;4.72;;;2.33;;
43580;SDS011;29175;51.030;4.606;2023-07-20T14:38:21;2.88;;;1.80;;
43580;SDS011;29175;51.030;4.606;2023-07-20T14:40:47;4.97;;;1.92;;
43580;SDS011;29175;51.030;4.606;2023-07-20T14:43:13;5.88;;;2.00;;
43580;SDS011;29175;51.030;4.606;2023-07-20T14:45:40;4.72;;;2.00;;
43580;SDS011;29175;51.030;4.606;2023-07-20T14:48:06;5.90;;;2.42;;
43580;SDS011;29175;51.030;4.606;2023-07-20T14:50:32;5.03;;;2.47;;
43580;SDS011;29175;51.030;4.606;2023-07-20T14:52:58;4.55;;;2.03;;
43580;SDS011;29175;51.030;4.606;2023-07-20T14:55:23;2.70;;;2.22;;
43580;SDS011;29175;51.030;4.606;2023-07-20T14:57:50;6.05;;;2.17;;
43580;SDS011;29175;51.030;4.606;2023-07-20T15:00:16;3.88;;;2.40;;